createdAt,value
2019-01-24T00:03:05.743Z,-3.45
2019-01-24T00:07:10.907Z,-3.46
2019-01-24T00:11:15.884Z,-3.40
2019-01-24T00:15:20.774Z,-3.44
2019-01-24T00:19:25.670Z,-3.47
2019-01-24T00:23:30.571Z,-3.50
2019-01-24T00:27:35.501Z,-3.53
2019-01-24T00:31:40.380Z,-3.54
2019-01-24T00:35:45.325Z,-3.55
2019-01-24T00:39:50.225Z,-3.52
2019-01-24T00:43:55.162Z,-3.48
2019-01-24T00:48:00.078Z,-3.54
2019-01-24T00:52:05.273Z,-3.57
2019-01-24T00:56:10.163Z,-3.58
2019-01-24T01:00:19.152Z,-3.61
2019-01-24T01:04:29.688Z,-3.60
2019-01-24T01:08:30.677Z,-3.61
2019-01-24T01:12:35.574Z,-3.60
2019-01-24T01:16:40.456Z,-3.60
2019-01-24T01:20:45.373Z,-3.61
2019-01-24T01:24:50.365Z,-3.62
2019-01-24T01:28:55.369Z,-3.65
2019-01-24T01:33:00.256Z,-3.60
2019-01-24T01:37:05.209Z,-3.67
2019-01-24T01:41:10.092Z,-3.71
2019-01-24T01:45:20.939Z,-3.72
2019-01-24T01:49:25.823Z,-3.72
2019-01-24T01:53:30.749Z,-3.72
2019-01-24T01:57:35.626Z,-3.73
2019-01-24T02:01:40.545Z,-3.75
2019-01-24T02:05:45.531Z,-3.75
2019-01-24T02:09:50.457Z,-3.75
2019-01-24T02:13:55.356Z,-3.77
2019-01-24T02:18:00.348Z,-3.78
2019-01-24T02:22:05.274Z,-3.77
2019-01-24T02:26:10.164Z,-3.81
2019-01-24T02:30:21.842Z,-3.79
2019-01-24T02:34:26.741Z,-3.80
2019-01-24T02:38:32.043Z,-3.80
2019-01-24T02:42:36.934Z,-3.76
2019-01-24T02:46:42.143Z,-3.85
2019-01-24T02:50:47.040Z,-3.83
2019-01-24T02:54:51.980Z,-3.79
2019-01-24T02:58:56.868Z,-3.79
2019-01-24T03:03:01.862Z,-3.84
2019-01-24T03:07:06.759Z,-3.83
2019-01-24T03:11:12.028Z,-3.91
2019-01-24T03:15:19.027Z,-3.90
2019-01-24T03:19:24.308Z,-3.84
2019-01-24T03:23:29.202Z,-3.89
2019-01-24T03:27:34.103Z,-3.86
2019-01-24T03:31:39.101Z,-3.82
2019-01-24T03:35:44.006Z,-3.92
2019-01-24T03:39:48.913Z,-3.89
2019-01-24T03:43:53.808Z,-3.94
2019-01-24T03:47:59.027Z,-3.93
2019-01-24T03:52:03.918Z,-3.97
2019-01-24T03:56:08.835Z,-3.99
2019-01-24T04:00:20.339Z,-4.02
2019-01-24T04:04:25.263Z,-4.01
2019-01-24T04:08:30.246Z,-4.02
2019-01-24T04:12:35.177Z,-4.02
2019-01-24T04:16:40.055Z,-4.01
2019-01-24T04:20:45.333Z,-4.03
2019-01-24T04:24:50.365Z,-4.10
2019-01-24T04:28:55.363Z,-4.06
2019-01-24T04:33:00.273Z,-4.05
2019-01-24T04:37:05.232Z,-4.06
2019-01-24T04:41:10.132Z,-4.06
2019-01-24T04:45:16.168Z,-4.11
2019-01-24T04:49:21.372Z,-4.09
2019-01-24T04:53:26.348Z,-4.10
2019-01-24T04:57:31.249Z,-4.15
2019-01-24T05:01:36.141Z,-4.17
2019-01-24T05:05:41.076Z,-4.13
2019-01-24T05:09:45.950Z,-4.11
2019-01-24T05:13:50.888Z,-4.24
2019-01-24T05:17:55.793Z,-4.20
2019-01-24T05:22:00.718Z,-4.21
2019-01-24T05:26:05.621Z,-4.20
2019-01-24T05:30:15.511Z,-4.20
2019-01-24T05:34:20.504Z,-4.18
2019-01-24T05:38:25.407Z,-4.16
2019-01-24T05:42:30.448Z,-4.19
2019-01-24T05:46:35.363Z,-4.13
2019-01-24T05:50:40.358Z,-4.18
2019-01-24T05:54:45.272Z,-4.16
2019-01-24T05:58:50.642Z,-4.26
2019-01-24T06:02:55.582Z,-4.30
2019-01-24T06:07:00.531Z,-4.36
2019-01-24T06:11:05.430Z,-4.27
2019-01-24T06:15:13.257Z,-4.33
2019-01-24T06:19:18.435Z,-4.34
2019-01-24T06:23:23.590Z,-4.29
2019-01-24T06:27:28.488Z,-4.21
2019-01-24T06:31:33.480Z,-4.25
2019-01-24T06:35:38.641Z,-4.29
2019-01-24T06:39:43.942Z,-4.29
2019-01-24T06:43:48.904Z,-4.32
2019-01-24T06:47:53.812Z,-4.29
2019-01-24T06:51:58.821Z,-4.36
2019-01-24T06:56:03.835Z,-4.29
2019-01-24T07:00:13.379Z,-4.37
2019-01-24T07:04:18.326Z,-4.41
2019-01-24T07:08:23.231Z,-4.31
2019-01-24T07:12:28.192Z,-4.36
2019-01-24T07:16:33.114Z,-4.44
2019-01-24T07:20:38.096Z,-4.39
2019-01-24T07:24:43.038Z,-4.45
2019-01-24T07:28:47.948Z,-4.49
2019-01-24T07:32:52.890Z,-4.45
2019-01-24T07:36:57.875Z,-4.42
2019-01-24T07:41:02.942Z,-4.37
2019-01-24T07:45:18.165Z,-4.44
2019-01-24T07:49:23.119Z,-4.39
2019-01-24T07:53:28.055Z,-4.35
2019-01-24T07:57:32.967Z,-4.41
2019-01-24T08:01:37.937Z,-4.42
2019-01-24T08:05:42.874Z,-4.33
2019-01-24T08:09:47.794Z,-4.32
2019-01-24T08:13:52.699Z,-4.32
2019-01-24T08:17:57.723Z,-4.32
2019-01-24T08:22:02.673Z,-4.29
2019-01-24T08:26:07.854Z,-4.28
2019-01-24T08:30:30.960Z,-4.30
2019-01-24T08:34:35.866Z,-4.25
2019-01-24T08:38:41.114Z,-4.31
2019-01-24T08:42:46.878Z,-4.29
2019-01-24T08:46:51.858Z,-4.29
2019-01-24T08:50:56.794Z,-4.30
2019-01-24T08:55:01.717Z,-4.20
2019-01-24T08:59:06.705Z,-4.24
2019-01-24T09:03:13.455Z,-4.28
2019-01-24T09:07:18.459Z,-4.13
2019-01-24T09:11:23.363Z,-4.09
2019-01-24T09:15:29.266Z,-4.15
2019-01-24T09:19:34.373Z,-4.03
2019-01-24T09:23:39.305Z,-3.81
2019-01-24T09:27:44.269Z,-3.83
2019-01-24T09:31:49.199Z,-3.91
2019-01-24T09:35:54.115Z,-3.75
2019-01-24T09:39:59.909Z,-3.45
2019-01-24T09:44:04.804Z,-3.45
2019-01-24T09:48:10.204Z,-3.63
2019-01-24T09:52:15.689Z,-3.59
2019-01-24T09:56:20.712Z,-3.53
2019-01-24T10:00:28.896Z,-3.36
2019-01-24T10:04:33.806Z,-3.14
2019-01-24T10:08:38.709Z,-3.22
2019-01-24T10:12:43.726Z,-3.04
2019-01-24T10:16:48.727Z,-3.55
2019-01-24T10:20:53.623Z,-3.35
2019-01-24T10:24:58.807Z,-3.20
2019-01-24T10:29:03.699Z,-3.52
2019-01-24T10:33:08.895Z,-3.34
2019-01-24T10:37:13.879Z,-3.64
2019-01-24T10:41:18.796Z,-3.70
2019-01-24T10:45:23.705Z,-3.44
2019-01-24T10:49:28.793Z,-3.50
2019-01-24T10:53:33.697Z,-3.43
2019-01-24T10:57:38.759Z,-3.51
2019-01-24T11:01:43.656Z,-3.47
2019-01-24T11:05:48.858Z,-3.80
2019-01-24T11:09:53.945Z,-3.76
2019-01-24T11:13:58.957Z,-3.92
2019-01-24T11:18:04.178Z,-3.47
2019-01-24T11:22:09.092Z,-3.50
2019-01-24T11:26:14.321Z,-3.58
2019-01-24T11:30:25.341Z,-3.38
2019-01-24T11:34:30.591Z,-3.39
2019-01-24T11:38:35.596Z,-3.61
2019-01-24T11:42:40.587Z,-3.25
2019-01-24T11:46:45.468Z,-3.41
2019-01-24T11:50:51.206Z,-3.51
2019-01-24T11:54:56.181Z,-3.28
2019-01-24T11:59:01.385Z,-3.43
2019-01-24T12:03:06.879Z,-3.91
2019-01-24T12:07:11.937Z,-3.78
2019-01-24T12:11:16.829Z,-3.63
2019-01-24T12:15:22.831Z,-3.36
2019-01-24T12:19:27.734Z,-3.55
2019-01-24T12:23:32.674Z,-3.72
2019-01-24T12:27:37.674Z,-3.02
2019-01-24T12:31:42.580Z,-3.11
2019-01-24T12:35:47.846Z,-3.54
2019-01-24T12:39:52.744Z,-3.45
2019-01-24T12:43:57.672Z,-3.22
2019-01-24T12:48:02.680Z,-3.33
2019-01-24T12:52:07.645Z,-3.65
2019-01-24T12:56:12.634Z,-3.09
2019-01-24T13:00:24.134Z,-3.41
2019-01-24T13:04:29.133Z,-3.15
2019-01-24T13:08:34.440Z,-3.06
2019-01-24T13:12:39.472Z,-2.76
2019-01-24T13:16:44.431Z,-3.48
2019-01-24T13:20:49.384Z,-3.25
2019-01-24T13:24:54.343Z,-3.86
2019-01-24T13:28:59.358Z,-3.47
2019-01-24T13:33:05.316Z,-3.77
2019-01-24T13:37:10.276Z,-3.60
2019-01-24T13:41:15.469Z,-3.40
2019-01-24T13:45:26.708Z,-3.75
2019-01-24T13:49:31.613Z,-3.90
2019-01-24T13:53:36.835Z,-3.57
2019-01-24T13:57:41.832Z,-4.01
2019-01-24T14:01:46.803Z,-3.65
2019-01-24T14:05:51.722Z,-3.68
2019-01-24T14:09:56.693Z,-3.71
2019-01-24T14:14:01.861Z,-3.83
2019-01-24T14:18:07.258Z,-3.67
2019-01-24T14:22:12.164Z,-3.94
2019-01-24T14:26:17.078Z,-3.98
2019-01-24T14:30:25.811Z,-4.13
2019-01-24T14:34:30.716Z,-3.99
2019-01-24T14:38:35.712Z,-3.89
2019-01-24T14:42:40.631Z,-3.47
2019-01-24T14:46:45.561Z,-3.86
2019-01-24T14:50:50.484Z,-3.59
2019-01-24T14:54:55.404Z,-3.78
2019-01-24T14:59:00.320Z,-3.84
2019-01-24T15:03:05.407Z,-3.79
2019-01-24T15:07:10.336Z,-3.87
2019-01-24T15:11:15.284Z,-3.65
2019-01-24T15:15:20.592Z,-4.09
2019-01-24T15:19:25.506Z,-3.84
2019-01-24T15:23:30.399Z,-4.02
2019-01-24T15:27:35.313Z,-3.94
2019-01-24T15:31:40.213Z,-3.75
2019-01-24T15:35:45.132Z,-4.09
2019-01-24T15:39:50.059Z,-3.83
2019-01-24T15:43:54.962Z,-3.83
2019-01-24T15:47:59.873Z,-4.12
2019-01-24T15:52:04.888Z,-3.73
2019-01-24T15:56:09.820Z,-3.62
2019-01-24T16:00:21.103Z,-4.10
2019-01-24T16:04:26.017Z,-4.10
2019-01-24T16:08:30.926Z,-3.84
2019-01-24T16:12:35.860Z,-3.95
2019-01-24T16:16:40.818Z,-4.18
2019-01-24T16:20:45.728Z,-4.17
2019-01-24T16:24:50.630Z,-4.09
2019-01-24T16:28:55.563Z,-4.17
2019-01-24T16:33:00.508Z,-4.01
2019-01-24T16:37:05.414Z,-3.95
2019-01-24T16:41:10.401Z,-4.06
2019-01-24T16:45:21.452Z,-4.01
2019-01-24T16:49:26.374Z,-4.02
2019-01-24T16:53:31.290Z,-4.02
2019-01-24T16:57:36.285Z,-4.13
2019-01-24T17:01:41.165Z,-4.06
2019-01-24T17:05:46.153Z,-4.02
2019-01-24T17:09:51.081Z,-3.92
2019-01-24T17:13:56.028Z,-3.86
2019-01-24T17:18:00.917Z,-3.90
2019-01-24T17:22:05.954Z,-3.94
2019-01-24T17:26:10.865Z,-3.88
2019-01-24T17:30:19.837Z,-3.92
2019-01-24T17:34:24.781Z,-3.77
2019-01-24T17:38:29.696Z,-3.70
2019-01-24T17:42:34.609Z,-3.90
2019-01-24T17:46:39.689Z,-3.88
2019-01-24T17:50:44.587Z,-3.94
2019-01-24T17:54:49.555Z,-3.80
2019-01-24T17:58:54.860Z,-3.77
2019-01-24T18:02:59.859Z,-3.63
2019-01-24T18:07:04.810Z,-3.76
2019-01-24T18:11:09.822Z,-3.69
2019-01-24T18:15:19.150Z,-3.68
2019-01-24T18:19:24.049Z,-3.64
2019-01-24T18:23:28.983Z,-3.54
2019-01-24T18:27:33.888Z,-3.58
2019-01-24T18:31:38.868Z,-3.59
2019-01-24T18:35:43.838Z,-3.66
2019-01-24T18:39:48.844Z,-3.70
2019-01-24T18:43:54.241Z,-3.60
2019-01-24T18:47:59.229Z,-3.63
2019-01-24T18:52:04.218Z,-3.42
2019-01-24T18:56:09.316Z,-3.53
2019-01-24T19:00:19.516Z,-3.54
2019-01-24T19:04:24.641Z,-3.49
2019-01-24T19:08:29.565Z,-3.55
2019-01-24T19:12:34.507Z,-3.53
2019-01-24T19:16:39.537Z,-3.41
2019-01-24T19:20:44.793Z,-3.59
2019-01-24T19:24:49.719Z,-3.69
2019-01-24T19:28:54.713Z,-3.51
2019-01-24T19:33:00.122Z,-3.58
2019-01-24T19:37:05.123Z,-3.59
2019-01-24T19:41:10.154Z,-3.47
2019-01-24T19:45:18.452Z,-3.42
2019-01-24T19:49:23.423Z,-3.47
2019-01-24T19:53:28.447Z,-3.61
2019-01-24T19:57:33.372Z,-3.63
2019-01-24T20:01:38.659Z,-3.53
2019-01-24T20:05:43.684Z,-3.55
2019-01-24T20:09:48.615Z,-3.56
2019-01-24T20:13:53.524Z,-3.53
2019-01-24T20:17:58.732Z,-3.47
2019-01-24T20:22:03.665Z,-3.45
2019-01-24T20:26:08.599Z,-3.49
2019-01-24T20:30:22.542Z,-3.48
2019-01-24T20:34:27.626Z,-3.48
2019-01-24T20:38:32.691Z,-3.52
2019-01-24T20:42:37.726Z,-3.47
2019-01-24T20:46:42.826Z,-3.59
2019-01-24T20:50:48.382Z,-3.34
2019-01-24T20:54:53.623Z,-3.42
2019-01-24T20:58:58.681Z,-3.55
2019-01-24T21:03:03.686Z,-3.40
2019-01-24T21:07:08.895Z,-3.27
2019-01-24T21:11:13.899Z,-3.33
2019-01-24T21:15:19.685Z,-3.36
2019-01-24T21:19:25.098Z,-3.47
2019-01-24T21:23:31.631Z,-3.44
2019-01-24T21:27:36.590Z,-3.55
2019-01-24T21:31:41.692Z,-3.67
2019-01-24T21:35:47.103Z,-3.55
2019-01-24T21:39:52.102Z,-3.46
2019-01-24T21:43:57.066Z,-3.50
2019-01-24T21:48:02.137Z,-3.63
2019-01-24T21:52:07.126Z,-3.59
2019-01-24T21:56:12.079Z,-3.62
2019-01-24T22:00:20.310Z,-3.62
2019-01-24T22:04:25.298Z,-3.64
2019-01-24T22:08:34.279Z,-3.61
2019-01-24T22:12:39.182Z,-3.63
2019-01-24T22:16:44.142Z,-3.70
2019-01-24T22:20:55.633Z,-3.61
2019-01-24T22:24:56.123Z,-3.69
2019-01-24T22:29:01.039Z,-3.57
2019-01-24T22:33:06.634Z,-3.58
2019-01-24T22:37:11.571Z,-3.58
2019-01-24T22:41:16.520Z,-3.64
2019-01-24T22:45:23.841Z,-3.66
2019-01-24T22:49:28.860Z,-3.67
2019-01-24T22:53:33.788Z,-3.52
2019-01-24T22:57:38.721Z,-3.62
2019-01-24T23:01:52.624Z,-3.72
2019-01-24T23:05:57.589Z,-3.67
2019-01-24T23:10:02.544Z,-3.56
2019-01-24T23:14:07.658Z,-3.68
2019-01-24T23:18:12.625Z,-3.72
2019-01-24T23:22:17.527Z,-3.56
2019-01-24T23:26:22.500Z,-3.63
2019-01-24T23:30:27.457Z,-3.55
2019-01-24T23:34:32.790Z,-3.59
2019-01-24T23:38:37.698Z,-3.54
2019-01-24T23:42:42.636Z,-3.53
2019-01-24T23:46:47.564Z,-3.62
2019-01-24T23:50:52.511Z,-3.57
2019-01-24T23:54:57.436Z,-3.65
2019-01-24T23:59:02.371Z,-3.53
